createdAt,value
2018-09-19T00:00:21.697Z,65.60
2018-09-19T00:02:50.084Z,65.50
2018-09-19T00:05:18.633Z,65.70
2018-09-19T00:07:47.103Z,65.70
2018-09-19T00:10:16.864Z,65.80
2018-09-19T00:12:45.252Z,65.90
2018-09-19T00:15:13.658Z,66.10
2018-09-19T00:17:42.092Z,66.10
2018-09-19T00:20:10.585Z,66.30
2018-09-19T00:22:39.141Z,66.20
2018-09-19T00:25:07.575Z,66.30
2018-09-19T00:27:36.069Z,66.30
2018-09-19T00:30:04.563Z,66.40
2018-09-19T00:32:33.006Z,66.30
2018-09-19T00:35:01.449Z,66.50
2018-09-19T00:37:29.841Z,66.50
2018-09-19T00:39:58.241Z,66.60
2018-09-19T00:42:26.805Z,66.70
2018-09-19T00:44:55.259Z,66.60
2018-09-19T00:47:23.673Z,66.60
2018-09-19T00:49:52.121Z,66.80
2018-09-19T00:52:20.546Z,66.80
2018-09-19T00:54:48.952Z,66.80
2018-09-19T00:57:17.383Z,67.00
2018-09-19T00:59:45.814Z,67.00
2018-09-19T01:02:14.201Z,67.20
2018-09-19T01:04:42.614Z,67.10
2018-09-19T01:07:11.131Z,67.10
2018-09-19T01:09:39.481Z,67.20
2018-09-19T01:12:07.925Z,67.20
2018-09-19T01:14:36.404Z,67.20
2018-09-19T01:17:04.950Z,67.30
2018-09-19T01:19:33.507Z,67.30
2018-09-19T01:22:01.879Z,67.30
2018-09-19T01:24:30.459Z,67.40
2018-09-19T01:26:58.942Z,67.40
2018-09-19T01:29:27.444Z,67.50
2018-09-19T01:31:56.289Z,67.60
2018-09-19T01:34:24.790Z,67.70
2018-09-19T01:36:53.173Z,67.90
2018-09-19T01:39:27.607Z,67.80
2018-09-19T01:41:56.042Z,67.90
2018-09-19T01:44:24.509Z,68.00
2018-09-19T01:46:53.040Z,68.00
2018-09-19T01:49:21.424Z,68.00
2018-09-19T01:51:53.994Z,68.10
2018-09-19T01:54:23.239Z,68.20
2018-09-19T01:56:51.761Z,68.30
2018-09-19T01:59:20.170Z,68.20
2018-09-19T02:01:48.612Z,68.30
2018-09-19T02:04:17.380Z,68.40
2018-09-19T02:06:45.803Z,68.50
2018-09-19T02:09:14.402Z,68.40
2018-09-19T02:11:43.168Z,68.50
2018-09-19T02:14:12.572Z,68.50
2018-09-19T02:16:41.009Z,68.50
2018-09-19T02:19:09.863Z,68.70
2018-09-19T02:21:38.362Z,68.70
2018-09-19T02:24:06.833Z,68.70
2018-09-19T02:26:35.231Z,68.80
2018-09-19T02:29:03.605Z,68.70
2018-09-19T02:31:32.189Z,68.80
2018-09-19T02:34:00.568Z,69.00
2018-09-19T02:36:34.999Z,69.00
2018-09-19T02:39:03.736Z,69.40
2018-09-19T02:41:32.117Z,69.10
2018-09-19T02:44:00.497Z,69.10
2018-09-19T02:46:28.951Z,69.30
2018-09-19T02:48:57.220Z,69.10
2018-09-19T02:51:25.588Z,69.30
2018-09-19T02:53:53.943Z,69.30
2018-09-19T02:56:22.334Z,69.20
2018-09-19T02:58:50.729Z,69.40
2018-09-19T03:01:22.996Z,69.40
2018-09-19T03:03:51.357Z,69.50
2018-09-19T03:08:53.344Z,69.60
2018-09-19T03:11:21.737Z,69.80
2018-09-19T03:13:50.184Z,69.70
2018-09-19T03:16:18.774Z,69.80
2018-09-19T03:18:47.163Z,69.80
2018-09-19T03:21:15.849Z,69.80
2018-09-19T03:23:44.130Z,69.90
2018-09-19T03:26:12.559Z,69.90
2018-09-19T03:28:40.892Z,70.70
2018-09-19T03:31:09.437Z,69.90
2018-09-19T03:33:37.927Z,69.90
2018-09-19T03:36:06.305Z,70.00
2018-09-19T03:38:34.708Z,70.10
2018-09-19T03:41:03.044Z,70.20
2018-09-19T03:43:31.425Z,70.20
2018-09-19T03:45:59.781Z,70.40
2018-09-19T03:48:28.200Z,70.20
2018-09-19T03:50:56.548Z,70.20
2018-09-19T03:53:26.209Z,70.20
2018-09-19T03:55:54.684Z,70.30
2018-09-19T03:58:23.049Z,70.30
2018-09-19T04:00:51.381Z,70.40
2018-09-19T04:03:19.796Z,70.60
2018-09-19T04:05:48.205Z,70.60
2018-09-19T04:08:16.635Z,70.80
2018-09-19T04:10:44.904Z,70.80
2018-09-19T04:13:13.270Z,71.60
2018-09-19T04:15:41.631Z,70.90
2018-09-19T04:18:10.029Z,70.90
2018-09-19T04:20:38.560Z,71.00
2018-09-19T04:23:07.647Z,71.00
2018-09-19T04:25:36.035Z,71.10
2018-09-19T04:28:08.013Z,71.10
2018-09-19T04:30:36.354Z,71.20
2018-09-19T04:33:04.768Z,71.20
2018-09-19T04:35:33.208Z,71.20
2018-09-19T04:38:01.577Z,71.20
2018-09-19T04:40:30.364Z,71.30
2018-09-19T04:42:58.792Z,71.10
2018-09-19T04:45:27.433Z,71.00
2018-09-19T04:47:55.817Z,70.90
2018-09-19T04:50:24.222Z,71.00
2018-09-19T04:52:52.647Z,71.20
2018-09-19T04:55:21.065Z,71.20
2018-09-19T04:57:49.498Z,71.20
2018-09-19T05:00:17.920Z,71.30
2018-09-19T05:02:46.271Z,71.60
2018-09-19T05:05:14.645Z,71.70
2018-09-19T05:07:43.104Z,71.90
2018-09-19T05:10:11.466Z,71.90
2018-09-19T05:12:39.820Z,71.90
2018-09-19T05:15:08.169Z,71.90
2018-09-19T05:17:36.610Z,71.90
2018-09-19T05:20:04.982Z,71.90
2018-09-19T05:22:33.955Z,71.90
2018-09-19T05:25:04.260Z,72.00
2018-09-19T05:27:32.673Z,72.20
2018-09-19T05:30:01.070Z,72.10
2018-09-19T05:32:29.512Z,72.20
2018-09-19T05:34:57.802Z,72.40
2018-09-19T05:37:26.094Z,72.30
2018-09-19T05:39:54.478Z,72.40
2018-09-19T05:42:22.879Z,72.50
2018-09-19T05:44:51.537Z,72.40
2018-09-19T05:47:19.872Z,72.30
2018-09-19T05:49:48.139Z,72.30
2018-09-19T05:52:16.362Z,72.20
2018-09-19T05:54:45.003Z,72.20
2018-09-19T05:57:13.625Z,72.30
2018-09-19T05:59:41.932Z,72.20
2018-09-19T06:02:10.300Z,72.20
2018-09-19T06:04:41.003Z,72.20
2018-09-19T06:07:10.285Z,72.30
2018-09-19T06:09:38.619Z,72.50
2018-09-19T06:12:07.104Z,72.60
2018-09-19T06:14:36.918Z,72.70
2018-09-19T06:17:05.224Z,72.80
2018-09-19T06:19:33.701Z,72.70
2018-09-19T06:22:01.982Z,72.60
2018-09-19T06:24:31.617Z,72.50
2018-09-19T06:27:00.599Z,72.60
2018-09-19T06:29:28.917Z,72.70
2018-09-19T06:31:57.419Z,72.80
2018-09-19T06:34:25.752Z,72.80
2018-09-19T06:36:54.186Z,72.80
2018-09-19T06:39:22.469Z,72.80
2018-09-19T06:41:50.752Z,72.90
2018-09-19T06:44:19.100Z,72.80
2018-09-19T06:46:47.427Z,72.70
2018-09-19T06:49:16.056Z,72.70
2018-09-19T06:51:44.489Z,72.70
2018-09-19T06:54:12.838Z,72.60
2018-09-19T06:56:41.160Z,72.50
2018-09-19T06:59:09.428Z,72.30
2018-09-19T07:01:37.742Z,72.10
2018-09-19T07:04:06.353Z,72.10
2018-09-19T07:06:34.661Z,72.00
2018-09-19T07:09:03.215Z,72.20
2018-09-19T07:11:31.494Z,71.80
2018-09-19T07:13:59.853Z,71.80
2018-09-19T07:16:28.114Z,71.60
2018-09-19T07:18:56.487Z,71.50
2018-09-19T07:21:24.789Z,71.50
2018-09-19T07:23:53.209Z,71.40
2018-09-19T07:26:24.077Z,71.40
2018-09-19T07:28:52.415Z,71.30
2018-09-19T07:31:20.664Z,71.20
2018-09-19T07:33:49.009Z,71.30
2018-09-19T07:36:17.287Z,71.30
2018-09-19T07:38:45.790Z,71.30
2018-09-19T07:41:14.127Z,71.20
2018-09-19T07:43:43.761Z,71.10
2018-09-19T07:46:12.222Z,71.10
2018-09-19T07:48:40.515Z,71.10
2018-09-19T07:51:08.966Z,71.10
2018-09-19T07:53:37.337Z,71.10
2018-09-19T07:56:05.748Z,71.20
2018-09-19T07:58:34.106Z,71.10
2018-09-19T08:01:02.495Z,71.20
2018-09-19T08:03:30.758Z,71.10
2018-09-19T08:05:59.118Z,71.10
2018-09-19T08:08:27.452Z,71.20
2018-09-19T08:10:56.096Z,71.10
2018-09-19T08:13:24.435Z,71.00
2018-09-19T08:15:52.812Z,71.00
2018-09-19T08:18:21.186Z,71.10
2018-09-19T08:20:49.480Z,71.10
2018-09-19T08:23:17.858Z,71.00
2018-09-19T08:25:46.145Z,71.10
2018-09-19T08:28:16.484Z,71.00
2018-09-19T08:30:44.917Z,71.20
2018-09-19T08:33:13.207Z,71.20
2018-09-19T08:35:41.485Z,71.20
2018-09-19T08:38:09.852Z,71.10
2018-09-19T08:40:49.272Z,70.90
2018-09-19T08:43:17.682Z,70.80
2018-09-19T08:45:46.054Z,70.70
2018-09-19T08:48:14.314Z,70.70
2018-09-19T08:50:42.722Z,70.70
2018-09-19T08:53:12.694Z,70.60
2018-09-19T08:55:41.339Z,70.70
2018-09-19T08:58:10.003Z,70.70
2018-09-19T09:00:38.287Z,70.80
2018-09-19T09:03:06.672Z,71.00
2018-09-19T09:05:35.951Z,71.00
2018-09-19T09:08:04.549Z,70.90
2018-09-19T09:10:33.229Z,71.00
2018-09-19T09:13:01.574Z,70.80
2018-09-19T09:15:30.625Z,70.70
2018-09-19T09:17:58.968Z,70.60
2018-09-19T09:20:27.466Z,70.70
2018-09-19T09:22:55.923Z,70.60
2018-09-19T09:25:25.035Z,70.50
2018-09-19T09:27:54.299Z,70.40
2018-09-19T09:30:22.622Z,70.40
2018-09-19T09:32:51.278Z,70.30
2018-09-19T09:35:19.806Z,70.40
2018-09-19T09:37:48.183Z,70.30
2018-09-19T09:40:16.491Z,70.20
2018-09-19T09:42:44.817Z,70.10
2018-09-19T09:45:13.164Z,70.00
2018-09-19T09:47:41.761Z,69.90
2018-09-19T09:50:10.204Z,69.90
2018-09-19T09:52:38.516Z,69.90
2018-09-19T09:55:06.944Z,69.90
2018-09-19T09:57:35.368Z,69.80
2018-09-19T10:00:03.728Z,69.70
2018-09-19T10:02:32.600Z,69.70
2018-09-19T10:05:00.933Z,69.60
2018-09-19T10:07:29.465Z,69.10
2018-09-19T10:09:57.888Z,69.60
2018-09-19T10:12:26.549Z,69.60
2018-09-19T10:14:54.936Z,69.50
2018-09-19T10:17:23.407Z,69.30
2018-09-19T10:19:52.432Z,69.30
2018-09-19T10:22:20.793Z,69.30
2018-09-19T10:24:49.333Z,69.20
2018-09-19T10:27:17.684Z,68.90
2018-09-19T10:29:46.519Z,68.80
2018-09-19T10:32:15.026Z,68.80
2018-09-19T10:34:43.406Z,68.80
2018-09-19T10:37:11.729Z,68.80
2018-09-19T10:39:40.035Z,68.70
2018-09-19T10:42:08.872Z,68.50
2018-09-19T10:44:37.564Z,68.40
2018-09-19T10:47:05.977Z,68.20
2018-09-19T10:49:34.772Z,68.20
2018-09-19T10:52:03.077Z,68.30
2018-09-19T10:54:31.436Z,68.40
2018-09-19T10:56:59.869Z,68.60
2018-09-19T10:59:31.992Z,68.70
2018-09-19T11:02:00.363Z,68.70
2018-09-19T11:04:28.665Z,68.60
2018-09-19T11:06:57.367Z,68.60
2018-09-19T11:09:25.697Z,68.60
2018-09-19T11:11:53.990Z,68.50
2018-09-19T11:14:22.298Z,68.40
2018-09-19T11:16:50.680Z,68.30
2018-09-19T11:19:23.922Z,68.50
2018-09-19T11:21:52.413Z,68.40
2018-09-19T11:24:20.869Z,68.10
2018-09-19T11:26:49.233Z,67.60
2018-09-19T11:29:20.398Z,67.40
2018-09-19T11:31:48.796Z,67.30
2018-09-19T11:34:17.844Z,67.30
2018-09-19T11:36:46.171Z,67.40
2018-09-19T11:39:14.578Z,67.10
2018-09-19T11:41:42.975Z,66.70
2018-09-19T11:44:11.327Z,66.20
2018-09-19T11:46:39.637Z,65.90
2018-09-19T11:49:08.042Z,65.60
2018-09-19T11:51:36.530Z,65.30
2018-09-19T11:54:04.863Z,64.80
2018-09-19T11:56:33.781Z,64.50
2018-09-19T11:59:02.995Z,64.30
2018-09-19T12:01:31.375Z,64.00
2018-09-19T12:04:05.625Z,63.80
2018-09-19T12:06:36.431Z,63.60
2018-09-19T12:09:08.089Z,63.50
2018-09-19T12:11:37.024Z,63.40
2018-09-19T12:14:05.838Z,63.20
2018-09-19T12:16:34.217Z,63.20
2018-09-19T12:19:04.074Z,63.10
2018-09-19T12:21:33.521Z,63.20
2018-09-19T12:24:03.276Z,63.20
2018-09-19T12:26:34.579Z,63.20
2018-09-19T12:29:02.892Z,63.00
2018-09-19T12:31:31.306Z,62.70
2018-09-19T12:34:01.370Z,63.10
2018-09-19T12:36:29.773Z,62.80
2018-09-19T12:38:58.261Z,62.90
2018-09-19T12:41:26.738Z,63.00
2018-09-19T12:43:55.208Z,62.80
2018-09-19T12:46:24.258Z,62.40
2018-09-19T12:48:52.663Z,61.90
2018-09-19T12:51:21.054Z,61.70
2018-09-19T12:53:49.508Z,61.70
2018-09-19T12:56:18.339Z,61.50
2018-09-19T12:58:46.831Z,61.10
2018-09-19T13:01:15.216Z,61.10
2018-09-19T13:03:43.623Z,60.90
2018-09-19T13:06:11.943Z,60.90
2018-09-19T13:08:40.381Z,60.70
2018-09-19T13:11:08.918Z,60.80
2018-09-19T13:13:38.238Z,60.60
2018-09-19T13:16:06.912Z,60.40
2018-09-19T13:18:35.551Z,60.30
2018-09-19T13:21:03.964Z,60.30
2018-09-19T13:23:32.498Z,60.00
2018-09-19T13:26:00.856Z,59.80
2018-09-19T13:28:29.230Z,60.00
2018-09-19T13:30:57.562Z,59.80
2018-09-19T13:33:25.918Z,60.30
2018-09-19T13:35:54.202Z,60.50
2018-09-19T13:38:22.524Z,60.10
2018-09-19T13:40:51.761Z,59.60
2018-09-19T13:43:20.192Z,59.40
2018-09-19T13:45:49.329Z,60.20
2018-09-19T13:48:17.617Z,60.40
2018-09-19T13:51:03.090Z,60.10
2018-09-19T13:53:31.507Z,59.70
2018-09-19T13:56:00.007Z,59.50
2018-09-19T13:58:28.414Z,59.40
2018-09-19T14:01:03.674Z,59.20
2018-09-19T14:03:32.093Z,59.60
2018-09-19T14:06:07.993Z,60.00
2018-09-19T14:08:36.479Z,60.00
2018-09-19T14:11:04.971Z,60.10
2018-09-19T14:13:34.481Z,60.00
2018-09-19T14:16:20.174Z,59.80
2018-09-19T14:18:48.567Z,59.70
2018-09-19T14:21:17.153Z,59.60
2018-09-19T14:23:51.003Z,59.60
2018-09-19T14:26:19.619Z,59.50
2018-09-19T14:28:48.098Z,59.40
2018-09-19T14:31:16.542Z,59.30
2018-09-19T14:33:51.725Z,59.30
2018-09-19T14:36:20.075Z,59.30
2018-09-19T14:38:54.456Z,59.30
2018-09-19T14:41:23.056Z,59.20
2018-09-19T14:44:00.926Z,59.00
2018-09-19T14:46:29.323Z,58.80
2018-09-19T14:48:57.759Z,58.70
2018-09-19T14:51:26.233Z,58.40
2018-09-19T14:53:58.524Z,58.10
2018-09-19T14:56:27.106Z,58.10
2018-09-19T14:58:56.006Z,58.30
2018-09-19T15:01:24.361Z,57.90
2018-09-19T15:03:52.801Z,58.00
2018-09-19T15:06:21.192Z,57.70
2018-09-19T15:09:02.281Z,57.60
2018-09-19T15:11:31.488Z,57.50
2018-09-19T15:13:59.979Z,57.80
2018-09-19T15:16:28.429Z,57.60
2018-09-19T15:18:56.894Z,57.80
2018-09-19T15:21:29.019Z,57.60
2018-09-19T15:23:57.402Z,57.80
2018-09-19T15:26:25.769Z,57.80
2018-09-19T15:28:54.254Z,58.00
2018-09-19T15:34:00.166Z,58.80
2018-09-19T15:36:29.411Z,58.30
2018-09-19T15:38:57.846Z,58.40
2018-09-19T15:41:26.192Z,58.60
2018-09-19T15:43:59.661Z,58.60
2018-09-19T15:46:29.716Z,59.30
2018-09-19T15:48:58.099Z,58.70
2018-09-19T15:51:41.911Z,58.70
2018-09-19T15:54:10.467Z,58.80
2018-09-19T15:56:38.870Z,58.60
2018-09-19T15:59:07.322Z,58.80
2018-09-19T16:01:37.871Z,58.80
2018-09-19T16:04:06.250Z,58.80
2018-09-19T16:06:44.801Z,58.80
2018-09-19T16:09:13.126Z,58.90
2018-09-19T16:11:41.475Z,59.20
2018-09-19T16:14:11.328Z,59.10
2018-09-19T16:16:39.760Z,59.00
2018-09-19T16:19:08.174Z,59.20
2018-09-19T16:21:36.689Z,59.30
2018-09-19T16:24:07.252Z,59.30
2018-09-19T16:26:35.605Z,59.10
2018-09-19T16:29:03.931Z,59.20
2018-09-19T16:31:32.311Z,59.10
2018-09-19T16:34:04.514Z,59.80
2018-09-19T16:36:51.046Z,59.40
2018-09-19T16:42:15.365Z,59.30
2018-09-19T16:44:43.862Z,59.50
2018-09-19T16:47:16.745Z,59.70
2018-09-19T16:49:46.185Z,59.60
2018-09-19T16:52:22.644Z,60.10
2018-09-19T16:54:54.405Z,59.70
2018-09-19T16:57:23.998Z,59.80
2018-09-19T16:59:52.558Z,59.90
2018-09-19T17:02:24.618Z,60.10
2018-09-19T17:04:53.447Z,60.30
2018-09-19T17:07:23.903Z,60.30
2018-09-19T17:09:52.423Z,60.30
2018-09-19T17:12:20.895Z,60.30
2018-09-19T17:14:49.707Z,60.50
2018-09-19T17:17:18.400Z,61.20
2018-09-19T17:19:47.108Z,60.50
2018-09-19T17:22:15.645Z,60.60
2018-09-19T17:24:45.696Z,60.60
2018-09-19T17:27:14.199Z,60.80
2018-09-19T17:29:43.023Z,60.90
2018-09-19T17:32:17.698Z,61.10
2018-09-19T17:34:46.373Z,61.20
2018-09-19T17:37:14.739Z,61.30
2018-09-19T17:39:43.566Z,61.40
2018-09-19T17:42:12.150Z,61.60
2018-09-19T18:04:55.133Z,62.30
2018-09-19T18:10:36.870Z,62.40
2018-09-19T18:13:05.549Z,62.40
2018-09-19T18:15:35.020Z,62.50
2018-09-19T18:18:04.776Z,62.60
2018-09-19T18:20:33.561Z,62.60
2018-09-19T18:23:02.106Z,62.60
2018-09-19T18:25:30.726Z,62.70
2018-09-19T18:27:59.330Z,62.60
2018-09-19T18:33:22.633Z,62.80
2018-09-19T18:35:51.222Z,63.00
2018-09-19T18:38:19.670Z,62.90
2018-09-19T18:40:54.606Z,63.00
2018-09-19T18:43:23.085Z,63.10
2018-09-19T18:45:51.838Z,63.20
2018-09-19T18:48:20.361Z,63.30
2018-09-19T18:50:48.930Z,63.40
2018-09-19T18:53:17.434Z,63.40
2018-09-19T18:55:48.802Z,63.60
2018-09-19T18:58:17.465Z,63.50
2018-09-19T19:01:05.573Z,63.60
2018-09-19T19:03:34.160Z,63.70
2018-09-19T19:06:02.791Z,63.80
2018-09-19T19:08:31.344Z,63.90
2018-09-19T19:10:59.924Z,63.90
2018-09-19T19:13:28.449Z,64.00
2018-09-19T19:15:56.889Z,64.00
2018-09-19T19:21:33.561Z,64.10
2018-09-19T19:24:02.164Z,64.20
2018-09-19T19:26:31.651Z,64.10
2018-09-19T19:31:50.984Z,64.30
2018-09-19T19:34:19.448Z,64.20
2018-09-19T19:36:48.054Z,64.30
2018-09-19T19:39:16.525Z,64.30
2018-09-19T19:41:45.069Z,64.30
2018-09-19T19:44:16.268Z,64.30
2018-09-19T19:46:44.826Z,64.30
2018-09-19T19:49:13.301Z,64.40
2018-09-19T19:51:41.918Z,64.40
2018-09-19T19:54:10.655Z,64.30
2018-09-19T19:56:42.746Z,64.30
2018-09-19T19:59:12.839Z,64.70
2018-09-19T20:01:41.676Z,64.40
2018-09-19T20:04:10.299Z,64.60
2018-09-19T20:13:09.620Z,64.80
2018-09-19T20:15:43.388Z,64.70
2018-09-19T20:20:47.465Z,64.70
2018-09-19T20:23:16.432Z,64.80
2018-09-19T20:25:55.094Z,64.90
2018-09-19T20:28:26.132Z,64.80
2018-09-19T20:30:54.638Z,64.80
2018-09-19T20:33:24.590Z,64.90
2018-09-19T20:38:48.525Z,64.90
2018-09-19T20:41:37.780Z,65.00
2018-09-19T20:44:08.759Z,65.00
2018-09-19T20:46:38.496Z,65.00
2018-09-19T20:49:14.188Z,65.10
2018-09-19T20:51:56.807Z,65.00
2018-09-19T20:54:30.871Z,65.20
2018-09-19T20:57:00.708Z,65.30
2018-09-19T20:59:29.387Z,65.20
2018-09-19T21:01:58.926Z,65.30
2018-09-19T21:04:34.148Z,65.50
2018-09-19T21:07:08.367Z,65.70
2018-09-19T21:09:36.929Z,65.60
2018-09-19T21:12:11.610Z,65.70
2018-09-19T21:14:40.003Z,65.60
2018-09-19T21:26:00.788Z,65.80
2018-09-19T21:28:29.275Z,65.90
2018-09-19T21:30:57.825Z,65.90
2018-09-19T21:33:26.230Z,66.00
2018-09-19T21:35:54.664Z,66.10
2018-09-19T21:41:35.033Z,66.10
2018-09-19T21:44:03.424Z,66.10
2018-09-19T21:46:32.258Z,66.20
2018-09-19T21:49:00.666Z,66.10
2018-09-19T21:51:42.719Z,66.30
2018-09-19T22:01:20.164Z,66.50
2018-09-19T22:04:06.958Z,66.60
2018-09-19T22:06:35.573Z,66.70
2018-09-19T22:09:12.003Z,66.70
2018-09-19T22:11:56.714Z,66.80
2018-09-19T22:14:27.394Z,66.90
2018-09-19T22:16:56.100Z,67.10
2018-09-19T22:19:24.545Z,67.70
2018-09-19T22:21:53.086Z,67.10
2018-09-19T22:24:22.910Z,67.20
2018-09-19T22:33:38.813Z,67.20
2018-09-19T22:36:13.085Z,67.40
2018-09-19T22:38:48.500Z,67.30
2018-09-19T22:41:16.938Z,67.60
2018-09-19T22:43:45.341Z,67.60
2018-09-19T22:46:15.887Z,67.70
2018-09-19T22:48:54.538Z,67.90
2018-09-19T22:51:36.620Z,67.90
2018-09-19T22:54:05.170Z,67.90
2018-09-19T22:56:33.600Z,67.90
2018-09-19T22:59:02.237Z,68.00
2018-09-19T23:01:41.984Z,68.00
2018-09-19T23:04:10.428Z,68.00
2018-09-19T23:06:38.815Z,68.00
2018-09-19T23:09:08.045Z,68.10
2018-09-19T23:11:39.234Z,68.10
2018-09-19T23:14:14.056Z,68.30
2018-09-19T23:16:46.032Z,68.30
2018-09-19T23:19:14.591Z,68.50
2018-09-19T23:21:47.892Z,68.50
2018-09-19T23:24:19.722Z,68.60
2018-09-19T23:26:48.231Z,68.60
2018-09-19T23:29:16.586Z,68.80
2018-09-19T23:31:45.517Z,68.80
2018-09-19T23:34:15.425Z,68.80
2018-09-19T23:37:02.952Z,69.00
2018-09-19T23:39:31.468Z,68.90
2018-09-19T23:42:04.420Z,69.20
2018-09-19T23:44:34.340Z,69.00
2018-09-19T23:47:03.053Z,69.10
2018-09-19T23:49:32.160Z,69.20
2018-09-19T23:52:02.472Z,69.20
2018-09-19T23:54:31.502Z,69.20
2018-09-19T23:56:59.992Z,69.40
2018-09-19T23:59:28.420Z,69.30
